Northland, Minnesota
Current Conditions -  °F | °C
As of 6:55 PM on Saturday 22 Nov 2014 (Local Time) from KDLH Reporting Station
Haze Haze  
Wind Chill: 27°   Ceiling: 500
Heat Index: 34°   Visibility: 3mi
Dew Point: 31°   Wind: 9mph
Humidity: 89%   Direction: 150°SSE
Pressure: 29.59"   Gusts: NA
Location:  47.068°N, 92.4547°W
Report Text: KDLH 230055Z 15008KT 3SM BR OVC005 01/M01 A2959 RMK AO2 SLP040 T00111006
Loading
Personal Weather Stations






























Interactive Weather Map New forecast layout! Learn more

10-Day Weather Forecast

Advertisements
Track Severe Weather on mobile